Terminal Aerodrome Forecast
Issued by NWS Sioux Falls, SD

Home | Current Version | Previous Version | Text Only | Print | Product List | Glossary On
Versions: 1 2 3 4 5 6 7 8 9 10 11 12 13 14 15 16
000
FTUS43 KFSD 200525
TAFSUX
TAF
KSUX 200525Z 2006/2106 07011G17KT 6SM -SHRA OVC012
     FM200900 04013KT 5SM -SHRA BR OVC008
     FM201200 01010KT 6SM -SHRA OVC008
     FM201800 36009KT P6SM VCSH OVC008
     FM202000 33009KT P6SM OVC008=

USA.gov is the U.S. government's official web portal to all federal, state and local government web resources and services.